sensor_id;sensor_type;location;lat;lon;timestamp;pressure;altitude;pressure_sealevel;temperature;humidity
8320;BME280;4197;42.130;24.746;2023-04-05T00:01:22;98831.34;;;5.93;100.00
8320;BME280;4197;42.130;24.746;2023-04-05T00:03:51;98826.88;;;5.85;100.00
8320;BME280;4197;42.130;24.746;2023-04-05T00:06:20;98825.78;;;5.86;100.00
8320;BME280;4197;42.130;24.746;2023-04-05T00:08:54;98824.66;;;5.87;100.00
8320;BME280;4197;42.130;24.746;2023-04-05T00:11:23;98824.66;;;5.87;100.00
8320;BME280;4197;42.130;24.746;2023-04-05T00:13:51;98827.22;;;5.83;100.00
8320;BME280;4197;42.130;24.746;2023-04-05T00:16:19;98827.56;;;5.81;100.00
8320;BME280;4197;42.130;24.746;2023-04-05T00:18:49;98822.44;;;5.76;100.00
8320;BME280;4197;42.130;24.746;2023-04-05T00:21:19;98831.59;;;5.75;100.00
8320;BME280;4197;42.130;24.746;2023-04-05T00:23:48;98837.09;;;5.79;100.00
8320;BME280;4197;42.130;24.746;2023-04-05T00:26:17;98833.19;;;5.76;100.00
8320;BME280;4197;42.130;24.746;2023-04-05T00:28:46;98838.13;;;5.74;100.00
8320;BME280;4197;42.130;24.746;2023-04-05T00:31:14;98831.94;;;5.74;100.00
8320;BME280;4197;42.130;24.746;2023-04-05T00:33:43;98836.88;;;5.72;100.00
8320;BME280;4197;42.130;24.746;2023-04-05T00:36:13;98838.13;;;5.74;100.00
8320;BME280;4197;42.130;24.746;2023-04-05T00:38:43;98834.50;;;5.70;100.00
8320;BME280;4197;42.130;24.746;2023-04-05T00:41:12;98835.75;;;5.73;100.00
8320;BME280;4197;42.130;24.746;2023-04-05T00:43:41;98841.91;;;5.73;100.00
8320;BME280;4197;42.130;24.746;2023-04-05T00:46:09;98834.97;;;5.72;100.00
8320;BME280;4197;42.130;24.746;2023-04-05T00:48:37;98834.50;;;5.70;100.00
8320;BME280;4197;42.130;24.746;2023-04-05T00:51:06;98834.09;;;5.68;100.00
8320;BME280;4197;42.130;24.746;2023-04-05T00:53:38;98833.28;;;5.68;100.00
8320;BME280;4197;42.130;24.746;2023-04-05T00:56:08;98839.47;;;5.68;100.00
8320;BME280;4197;42.130;24.746;2023-04-05T00:58:39;98845.16;;;5.67;100.00
8320;BME280;4197;42.130;24.746;2023-04-05T01:01:12;98842.78;;;5.65;100.00
8320;BME280;4197;42.130;24.746;2023-04-05T01:03:50;98832.50;;;5.67;100.00
8320;BME280;4197;42.130;24.746;2023-04-05T01:06:46;98840.09;;;5.65;100.00
8320;BME280;4197;42.130;24.746;2023-04-05T01:09:27;98843.94;;;5.64;100.00
8320;BME280;4197;42.130;24.746;2023-04-05T01:11:58;98849.53;;;5.59;100.00
8320;BME280;4197;42.130;24.746;2023-04-05T01:14:28;98846.72;;;5.55;100.00
8320;BME280;4197;42.130;24.746;2023-04-05T01:16:56;98852.22;;;5.59;100.00
8320;BME280;4197;42.130;24.746;2023-04-05T01:19:27;98848.63;;;5.55;100.00
8320;BME280;4197;42.130;24.746;2023-04-05T01:22:34;98844.81;;;5.56;100.00
8320;BME280;4197;42.130;24.746;2023-04-05T01:25:32;98856.34;;;5.56;100.00
8320;BME280;4197;42.130;24.746;2023-04-05T01:28:28;98855.56;;;5.44;100.00
8320;BME280;4197;42.130;24.746;2023-04-05T01:31:06;98854.44;;;5.45;100.00
8320;BME280;4197;42.130;24.746;2023-04-05T01:33:40;98852.22;;;5.47;100.00
8320;BME280;4197;42.130;24.746;2023-04-05T01:36:16;98858.38;;;5.47;100.00
8320;BME280;4197;42.130;24.746;2023-04-05T01:38:48;98853.56;;;5.41;100.00
8320;BME280;4197;42.130;24.746;2023-04-05T01:41:17;98858.34;;;5.35;100.00
8320;BME280;4197;42.130;24.746;2023-04-05T01:43:46;98851.06;;;5.35;100.00
8320;BME280;4197;42.130;24.746;2023-04-05T01:46:16;98854.53;;;5.36;100.00
8320;BME280;4197;42.130;24.746;2023-04-05T01:48:44;98861.94;;;5.39;100.00
8320;BME280;4197;42.130;24.746;2023-04-05T01:51:12;98861.47;;;5.37;100.00
8320;BME280;4197;42.130;24.746;2023-04-05T01:53:40;98861.16;;;5.39;100.00
8320;BME280;4197;42.130;24.746;2023-04-05T01:56:10;98867.53;;;5.34;100.00
8320;BME280;4197;42.130;24.746;2023-04-05T01:58:38;98867.06;;;5.32;100.00
8320;BME280;4197;42.130;24.746;2023-04-05T02:01:06;98869.63;;;5.28;100.00
8320;BME280;4197;42.130;24.746;2023-04-05T02:03:36;98877.38;;;5.30;100.00
8320;BME280;4197;42.130;24.746;2023-04-05T02:06:05;98881.97;;;5.29;100.00
8320;BME280;4197;42.130;24.746;2023-04-05T02:08:33;98882.97;;;5.25;100.00
8320;BME280;4197;42.130;24.746;2023-04-05T02:11:01;98878.72;;;5.24;100.00
8320;BME280;4197;42.130;24.746;2023-04-05T02:13:29;98875.88;;;5.20;100.00
8320;BME280;4197;42.130;24.746;2023-04-05T02:15:58;98878.25;;;5.22;100.00
8320;BME280;4197;42.130;24.746;2023-04-05T02:18:26;98882.38;;;5.19;100.00
8320;BME280;4197;42.130;24.746;2023-04-05T02:21:03;98882.13;;;5.12;100.00
8320;BME280;4197;42.130;24.746;2023-04-05T02:23:32;98892.88;;;5.12;100.00
8320;BME280;4197;42.130;24.746;2023-04-05T02:26:00;98889.75;;;5.10;100.00
8320;BME280;4197;42.130;24.746;2023-04-05T02:28:28;98883.91;;;5.08;100.00
8320;BME280;4197;42.130;24.746;2023-04-05T02:30:57;98891.22;;;5.07;100.00
8320;BME280;4197;42.130;24.746;2023-04-05T02:33:25;98896.59;;;5.07;100.00
8320;BME280;4197;42.130;24.746;2023-04-05T02:35:55;98903.84;;;5.07;100.00
8320;BME280;4197;42.130;24.746;2023-04-05T02:38:24;98900.72;;;5.05;100.00
8320;BME280;4197;42.130;24.746;2023-04-05T02:40:52;98898.69;;;5.02;100.00
8320;BME280;4197;42.130;24.746;2023-04-05T02:43:21;98902.00;;;4.99;100.00
8320;BME280;4197;42.130;24.746;2023-04-05T02:45:50;98904.38;;;5.00;100.00
8320;BME280;4197;42.130;24.746;2023-04-05T02:48:18;98897.22;;;5.04;100.00
8320;BME280;4197;42.130;24.746;2023-04-05T02:50:47;98899.69;;;5.09;100.00
8320;BME280;4197;42.130;24.746;2023-04-05T02:53:15;98908.56;;;5.10;100.00
8320;BME280;4197;42.130;24.746;2023-04-05T02:55:51;98905.22;;;5.13;100.00
8320;BME280;4197;42.130;24.746;2023-04-05T02:58:20;98901.16;;;5.07;100.00
8320;BME280;4197;42.130;24.746;2023-04-05T03:00:49;98903.41;;;5.05;100.00
8320;BME280;4197;42.130;24.746;2023-04-05T03:03:19;98904.97;;;5.06;100.00
8320;BME280;4197;42.130;24.746;2023-04-05T03:05:48;98904.28;;;5.09;100.00
8320;BME280;4197;42.130;24.746;2023-04-05T03:08:23;98908.31;;;5.03;100.00
8320;BME280;4197;42.130;24.746;2023-04-05T03:10:53;98911.91;;;5.07;100.00
8320;BME280;4197;42.130;24.746;2023-04-05T03:13:21;98911.31;;;5.01;100.00
8320;BME280;4197;42.130;24.746;2023-04-05T03:15:52;98913.88;;;4.98;100.00
8320;BME280;4197;42.130;24.746;2023-04-05T03:18:21;98914.47;;;5.03;100.00
8320;BME280;4197;42.130;24.746;2023-04-05T03:20:52;98911.66;;;5.00;100.00
8320;BME280;4197;42.130;24.746;2023-04-05T03:23:23;98917.50;;;5.02;100.00
8320;BME280;4197;42.130;24.746;2023-04-05T03:25:57;98921.63;;;4.99;100.00
8320;BME280;4197;42.130;24.746;2023-04-05T03:28:25;98914.00;;;5.01;100.00
8320;BME280;4197;42.130;24.746;2023-04-05T03:30:53;98917.69;;;4.97;100.00
8320;BME280;4197;42.130;24.746;2023-04-05T03:33:22;98923.06;;;4.97;100.00
8320;BME280;4197;42.130;24.746;2023-04-05T03:35:50;98921.16;;;4.97;100.00
8320;BME280;4197;42.130;24.746;2023-04-05T03:38:18;98922.59;;;4.95;100.00
8320;BME280;4197;42.130;24.746;2023-04-05T03:40:47;98922.28;;;4.96;100.00
8320;BME280;4197;42.130;24.746;2023-04-05T03:43:17;98923.19;;;5.00;100.00
8320;BME280;4197;42.130;24.746;2023-04-05T03:45:45;98926.47;;;5.06;100.00
8320;BME280;4197;42.130;24.746;2023-04-05T03:48:13;98927.44;;;5.01;100.00
8320;BME280;4197;42.130;24.746;2023-04-05T03:50:45;98918.13;;;4.99;100.00
8320;BME280;4197;42.130;24.746;2023-04-05T03:53:15;98923.97;;;5.01;100.00
8320;BME280;4197;42.130;24.746;2023-04-05T03:55:44;98933.28;;;5.03;100.00
8320;BME280;4197;42.130;24.746;2023-04-05T03:58:17;98927.25;;;5.06;100.00
8320;BME280;4197;42.130;24.746;2023-04-05T04:00:45;98929.16;;;5.06;100.00
8320;BME280;4197;42.130;24.746;2023-04-05T04:03:13;98925.56;;;5.02;100.00
8320;BME280;4197;42.130;24.746;2023-04-05T04:05:41;98926.34;;;5.02;100.00
8320;BME280;4197;42.130;24.746;2023-04-05T04:08:10;98939.00;;;5.02;100.00
8320;BME280;4197;42.130;24.746;2023-04-05T04:10:39;98946.72;;;5.03;100.00
8320;BME280;4197;42.130;24.746;2023-04-05T04:13:07;98950.66;;;5.06;100.00
8320;BME280;4197;42.130;24.746;2023-04-05T04:15:36;98949.41;;;5.03;100.00
8320;BME280;4197;42.130;24.746;2023-04-05T04:18:06;98948.63;;;5.03;100.00
8320;BME280;4197;42.130;24.746;2023-04-05T04:20:34;98956.81;;;5.06;100.00
8320;BME280;4197;42.130;24.746;2023-04-05T04:23:03;98950.44;;;5.11;100.00
8320;BME280;4197;42.130;24.746;2023-04-05T04:25:32;98958.16;;;5.12;100.00
8320;BME280;4197;42.130;24.746;2023-04-05T04:28:02;98963.22;;;5.14;100.00
8320;BME280;4197;42.130;24.746;2023-04-05T04:30:32;98960.06;;;5.12;100.00
8320;BME280;4197;42.130;24.746;2023-04-05T04:33:03;98961.50;;;5.09;100.00
8320;BME280;4197;42.130;24.746;2023-04-05T04:35:35;98962.94;;;5.07;100.00
8320;BME280;4197;42.130;24.746;2023-04-05T04:38:05;98965.66;;;5.07;100.00
8320;BME280;4197;42.130;24.746;2023-04-05T04:40:36;98965.88;;;5.02;100.00
8320;BME280;4197;42.130;24.746;2023-04-05T04:43:06;98973.66;;;4.95;100.00
8320;BME280;4197;42.130;24.746;2023-04-05T04:45:36;98976.34;;;4.95;100.00
8320;BME280;4197;42.130;24.746;2023-04-05T04:48:06;98983.88;;;5.01;100.00
8320;BME280;4197;42.130;24.746;2023-04-05T04:50:34;98985.59;;;5.06;100.00
8320;BME280;4197;42.130;24.746;2023-04-05T04:53:03;98990.75;;;5.11;100.00
8320;BME280;4197;42.130;24.746;2023-04-05T04:55:31;98998.16;;;5.14;100.00
8320;BME280;4197;42.130;24.746;2023-04-05T04:58:02;98988.31;;;5.18;100.00
8320;BME280;4197;42.130;24.746;2023-04-05T05:00:37;98991.81;;;5.19;100.00
8320;BME280;4197;42.130;24.746;2023-04-05T05:03:10;98981.50;;;5.21;100.00
8320;BME280;4197;42.130;24.746;2023-04-05T05:05:41;98992.19;;;5.29;99.37
8320;BME280;4197;42.130;24.746;2023-04-05T05:08:10;98993.69;;;5.39;99.46
8320;BME280;4197;42.130;24.746;2023-04-05T05:10:39;99011.97;;;5.46;97.83
8320;BME280;4197;42.130;24.746;2023-04-05T05:13:08;99005.88;;;5.57;98.53
8320;BME280;4197;42.130;24.746;2023-04-05T05:15:38;99005.19;;;5.61;97.36
8320;BME280;4197;42.130;24.746;2023-04-05T05:18:08;99004.19;;;5.65;97.53
8320;BME280;4197;42.130;24.746;2023-04-05T05:20:38;99010.50;;;5.69;97.15
8320;BME280;4197;42.130;24.746;2023-04-05T05:23:07;99017.44;;;5.70;96.17
8320;BME280;4197;42.130;24.746;2023-04-05T05:25:35;99017.69;;;5.77;96.85
8320;BME280;4197;42.130;24.746;2023-04-05T05:28:04;99014.59;;;5.88;96.61
8320;BME280;4197;42.130;24.746;2023-04-05T05:30:33;99010.50;;;5.81;95.68
8320;BME280;4197;42.130;24.746;2023-04-05T05:33:01;99016.81;;;5.86;96.02
8320;BME280;4197;42.130;24.746;2023-04-05T05:35:31;99008.69;;;5.94;96.55
8320;BME280;4197;42.130;24.746;2023-04-05T05:38:00;99017.69;;;6.11;95.01
8320;BME280;4197;42.130;24.746;2023-04-05T05:40:28;99016.22;;;6.13;95.20
8320;BME280;4197;42.130;24.746;2023-04-05T05:42:56;99015.66;;;6.08;94.00
8320;BME280;4197;42.130;24.746;2023-04-05T05:45:27;99011.38;;;6.07;94.69
8320;BME280;4197;42.130;24.746;2023-04-05T05:47:55;99010.75;;;6.10;92.77
8320;BME280;4197;42.130;24.746;2023-04-05T05:50:24;99019.13;;;6.08;92.54
8320;BME280;4197;42.130;24.746;2023-04-05T05:52:53;99013.28;;;6.06;93.86
8320;BME280;4197;42.130;24.746;2023-04-05T05:55:21;99014.88;;;6.07;92.54
8320;BME280;4197;42.130;24.746;2023-04-05T05:57:49;99014.13;;;6.19;93.21
8320;BME280;4197;42.130;24.746;2023-04-05T06:00:19;99003.44;;;6.10;91.28
8320;BME280;4197;42.130;24.746;2023-04-05T06:02:48;99010.59;;;6.06;90.22
8320;BME280;4197;42.130;24.746;2023-04-05T06:05:18;99016.34;;;6.05;90.20
8320;BME280;4197;42.130;24.746;2023-04-05T06:07:46;99014.44;;;6.05;90.09
8320;BME280;4197;42.130;24.746;2023-04-05T06:10:16;99022.50;;;6.17;90.45
8320;BME280;4197;42.130;24.746;2023-04-05T06:12:45;99023.75;;;6.20;90.05
8320;BME280;4197;42.130;24.746;2023-04-05T06:15:13;99018.72;;;6.18;89.99
8320;BME280;4197;42.130;24.746;2023-04-05T06:17:41;99030.06;;;6.24;92.23
8320;BME280;4197;42.130;24.746;2023-04-05T06:20:11;99023.31;;;6.42;90.90
8320;BME280;4197;42.130;24.746;2023-04-05T06:22:39;99026.22;;;6.62;88.89
8320;BME280;4197;42.130;24.746;2023-04-05T06:25:08;99030.97;;;6.53;89.80
8320;BME280;4197;42.130;24.746;2023-04-05T06:27:40;99029.63;;;6.71;88.87
8320;BME280;4197;42.130;24.746;2023-04-05T06:30:09;99028.16;;;6.74;86.97
8320;BME280;4197;42.130;24.746;2023-04-05T06:32:37;99031.97;;;6.73;86.75
8320;BME280;4197;42.130;24.746;2023-04-05T06:35:06;99036.56;;;6.72;87.34
8320;BME280;4197;42.130;24.746;2023-04-05T06:37:35;99030.59;;;6.79;86.85
8320;BME280;4197;42.130;24.746;2023-04-05T06:40:03;99035.88;;;6.75;86.45
8320;BME280;4197;42.130;24.746;2023-04-05T06:42:32;99044.75;;;6.88;86.54
8320;BME280;4197;42.130;24.746;2023-04-05T06:45:02;99039.00;;;7.02;85.81
8320;BME280;4197;42.130;24.746;2023-04-05T06:47:32;99041.34;;;7.03;84.88
8320;BME280;4197;42.130;24.746;2023-04-05T06:50:01;99039.00;;;7.02;85.57
8320;BME280;4197;42.130;24.746;2023-04-05T06:52:29;99047.75;;;7.11;84.10
8320;BME280;4197;42.130;24.746;2023-04-05T06:54:57;99062.59;;;7.05;84.09
8320;BME280;4197;42.130;24.746;2023-04-05T06:57:26;99071.47;;;7.05;84.30
8320;BME280;4197;42.130;24.746;2023-04-05T06:59:54;99064.25;;;7.09;83.50
8320;BME280;4197;42.130;24.746;2023-04-05T07:02:24;99069.81;;;6.88;83.39
8320;BME280;4197;42.130;24.746;2023-04-05T07:04:52;99075.28;;;6.92;84.45
8320;BME280;4197;42.130;24.746;2023-04-05T07:07:29;99074.38;;;7.00;85.31
8320;BME280;4197;42.130;24.746;2023-04-05T07:09:57;99081.25;;;6.98;83.91
8320;BME280;4197;42.130;24.746;2023-04-05T07:12:26;99072.59;;;6.92;84.23
8320;BME280;4197;42.130;24.746;2023-04-05T07:14:54;99074.63;;;7.07;84.33
8320;BME280;4197;42.130;24.746;2023-04-05T07:17:23;99081.34;;;6.89;84.45
8320;BME280;4197;42.130;24.746;2023-04-05T07:19:52;99080.00;;;6.95;85.27
8320;BME280;4197;42.130;24.746;2023-04-05T07:22:23;99083.81;;;7.06;83.35
8320;BME280;4197;42.130;24.746;2023-04-05T07:24:51;99086.75;;;7.01;83.64
8320;BME280;4197;42.130;24.746;2023-04-05T07:27:21;99089.78;;;7.00;83.10
8320;BME280;4197;42.130;24.746;2023-04-05T07:29:49;99095.03;;;7.08;83.63
8320;BME280;4197;42.130;24.746;2023-04-05T07:32:18;99091.31;;;7.25;84.41
8320;BME280;4197;42.130;24.746;2023-04-05T07:34:48;99092.53;;;7.40;82.40
8320;BME280;4197;42.130;24.746;2023-04-05T07:37:16;99088.69;;;7.41;83.15
8320;BME280;4197;42.130;24.746;2023-04-05T07:39:44;99093.09;;;7.46;81.62
8320;BME280;4197;42.130;24.746;2023-04-05T07:42:12;99102.28;;;7.57;81.69
8320;BME280;4197;42.130;24.746;2023-04-05T07:44:41;99106.53;;;7.58;80.66
8320;BME280;4197;42.130;24.746;2023-04-05T07:47:09;99104.75;;;7.50;80.36
8320;BME280;4197;42.130;24.746;2023-04-05T07:49:38;99105.53;;;7.50;81.30
8320;BME280;4197;42.130;24.746;2023-04-05T07:52:07;99105.28;;;7.55;80.68
8320;BME280;4197;42.130;24.746;2023-04-05T07:54:36;99102.84;;;7.50;79.96
8320;BME280;4197;42.130;24.746;2023-04-05T07:57:05;99111.63;;;7.47;81.53
8320;BME280;4197;42.130;24.746;2023-04-05T07:59:34;99117.53;;;7.65;80.14
8320;BME280;4197;42.130;24.746;2023-04-05T08:02:02;99122.56;;;7.67;80.53
8320;BME280;4197;42.130;24.746;2023-04-05T08:04:39;99116.03;;;7.80;80.60
8320;BME280;4197;42.130;24.746;2023-04-05T08:07:09;99118.38;;;8.10;80.07
8320;BME280;4197;42.130;24.746;2023-04-05T08:09:37;99117.56;;;8.37;77.83
8320;BME280;4197;42.130;24.746;2023-04-05T08:12:06;99115.50;;;8.46;77.14
8320;BME280;4197;42.130;24.746;2023-04-05T08:14:37;99125.19;;;8.63;76.12
8320;BME280;4197;42.130;24.746;2023-04-05T08:17:05;99121.97;;;8.58;73.78
8320;BME280;4197;42.130;24.746;2023-04-05T08:19:33;99115.41;;;8.43;74.64
8320;BME280;4197;42.130;24.746;2023-04-05T08:22:02;99122.84;;;8.34;69.03
8320;BME280;4197;42.130;24.746;2023-04-05T08:24:31;99127.78;;;8.16;68.13
8320;BME280;4197;42.130;24.746;2023-04-05T08:27:00;99139.59;;;8.23;68.68
8320;BME280;4197;42.130;24.746;2023-04-05T08:29:28;99125.34;;;8.39;69.17
8320;BME280;4197;42.130;24.746;2023-04-05T08:31:56;99135.91;;;8.60;67.64
8320;BME280;4197;42.130;24.746;2023-04-05T08:34:25;99129.00;;;8.78;66.26
8320;BME280;4197;42.130;24.746;2023-04-05T08:36:57;99132.75;;;8.89;64.05
8320;BME280;4197;42.130;24.746;2023-04-05T08:39:25;99139.31;;;8.88;63.88
8320;BME280;4197;42.130;24.746;2023-04-05T08:42:01;99137.31;;;8.85;64.51
8320;BME280;4197;42.130;24.746;2023-04-05T08:44:30;99146.63;;;8.88;65.98
8320;BME280;4197;42.130;24.746;2023-04-05T08:46:59;99139.50;;;8.80;63.86
8320;BME280;4197;42.130;24.746;2023-04-05T08:49:27;99146.81;;;8.79;65.15
8320;BME280;4197;42.130;24.746;2023-04-05T08:51:57;99152.94;;;8.76;63.83
8320;BME280;4197;42.130;24.746;2023-04-05T08:54:27;99148.22;;;8.73;63.43
8320;BME280;4197;42.130;24.746;2023-04-05T08:56:57;99138.63;;;8.60;64.05
8320;BME280;4197;42.130;24.746;2023-04-05T08:59:27;99147.25;;;8.65;65.09
8320;BME280;4197;42.130;24.746;2023-04-05T09:01:58;99153.16;;;9.03;63.27
8320;BME280;4197;42.130;24.746;2023-04-05T09:04:30;99151.66;;;9.21;62.91
8320;BME280;4197;42.130;24.746;2023-04-05T09:07:05;99155.59;;;9.08;63.01
8320;BME280;4197;42.130;24.746;2023-04-05T09:09:36;99159.34;;;9.19;63.88
8320;BME280;4197;42.130;24.746;2023-04-05T09:12:07;99155.59;;;8.92;61.35
8320;BME280;4197;42.130;24.746;2023-04-05T09:14:35;99161.13;;;8.80;63.08
8320;BME280;4197;42.130;24.746;2023-04-05T09:17:05;99156.94;;;8.82;61.86
8320;BME280;4197;42.130;24.746;2023-04-05T09:19:33;99165.81;;;8.83;61.25
8320;BME280;4197;42.130;24.746;2023-04-05T09:22:03;99156.66;;;8.71;60.36
8320;BME280;4197;42.130;24.746;2023-04-05T09:24:32;99171.22;;;8.67;61.55
8320;BME280;4197;42.130;24.746;2023-04-05T09:27:03;99178.38;;;8.75;61.58
8320;BME280;4197;42.130;24.746;2023-04-05T09:29:33;99171.69;;;8.85;61.73
8320;BME280;4197;42.130;24.746;2023-04-05T09:32:03;99167.31;;;8.80;60.48
8320;BME280;4197;42.130;24.746;2023-04-05T09:34:33;99173.41;;;8.77;61.34
8320;BME280;4197;42.130;24.746;2023-04-05T09:37:11;99166.78;;;8.90;62.01
8320;BME280;4197;42.130;24.746;2023-04-05T09:39:40;99165.97;;;9.06;60.77
8320;BME280;4197;42.130;24.746;2023-04-05T09:42:10;99163.19;;;9.02;61.03
8320;BME280;4197;42.130;24.746;2023-04-05T09:44:50;99172.19;;;9.06;58.88
8320;BME280;4197;42.130;24.746;2023-04-05T09:47:20;99171.22;;;8.83;60.31
8320;BME280;4197;42.130;24.746;2023-04-05T09:49:49;99176.72;;;8.86;61.14
8320;BME280;4197;42.130;24.746;2023-04-05T09:52:21;99171.69;;;9.01;62.10
8320;BME280;4197;42.130;24.746;2023-04-05T09:54:51;99168.16;;;9.16;60.54
8320;BME280;4197;42.130;24.746;2023-04-05T09:57:19;99167.06;;;8.85;61.72
8320;BME280;4197;42.130;24.746;2023-04-05T09:59:48;99165.09;;;8.70;62.14
8320;BME280;4197;42.130;24.746;2023-04-05T10:02:17;99166.69;;;8.71;63.20
8320;BME280;4197;42.130;24.746;2023-04-05T10:04:47;99172.25;;;8.78;62.54
8320;BME280;4197;42.130;24.746;2023-04-05T10:07:17;99177.25;;;8.92;62.28
8320;BME280;4197;42.130;24.746;2023-04-05T10:09:47;99169.22;;;8.80;62.63
8320;BME280;4197;42.130;24.746;2023-04-05T10:12:22;99178.19;;;8.52;63.04
8320;BME280;4197;42.130;24.746;2023-04-05T10:14:53;99179.22;;;8.47;63.13
8320;BME280;4197;42.130;24.746;2023-04-05T10:17:33;99175.78;;;8.35;63.43
8320;BME280;4197;42.130;24.746;2023-04-05T10:20:09;99173.03;;;8.47;65.07
8320;BME280;4197;42.130;24.746;2023-04-05T10:22:58;99164.97;;;8.79;63.14
8320;BME280;4197;42.130;24.746;2023-04-05T10:25:35;99170.63;;;9.05;63.29
8320;BME280;4197;42.130;24.746;2023-04-05T10:28:09;99175.69;;;9.07;62.16
8320;BME280;4197;42.130;24.746;2023-04-05T10:30:40;99167.91;;;9.05;61.84
8320;BME280;4197;42.130;24.746;2023-04-05T10:33:19;99172.53;;;9.05;63.21
8320;BME280;4197;42.130;24.746;2023-04-05T10:35:55;99182.66;;;9.24;62.18
8320;BME280;4197;42.130;24.746;2023-04-05T10:38:27;99174.22;;;9.45;62.49
8320;BME280;4197;42.130;24.746;2023-04-05T10:41:01;99180.97;;;9.35;62.46
8320;BME280;4197;42.130;24.746;2023-04-05T10:43:33;99182.38;;;9.29;62.03
8320;BME280;4197;42.130;24.746;2023-04-05T10:46:03;99176.47;;;8.91;63.77
8320;BME280;4197;42.130;24.746;2023-04-05T10:48:39;99173.94;;;8.99;64.51
8320;BME280;4197;42.130;24.746;2023-04-05T10:51:11;99182.72;;;9.11;64.08
8320;BME280;4197;42.130;24.746;2023-04-05T10:53:40;99189.19;;;8.91;63.25
8320;BME280;4197;42.130;24.746;2023-04-05T10:56:08;99191.13;;;8.90;63.42
8320;BME280;4197;42.130;24.746;2023-04-05T10:58:39;99183.06;;;8.78;63.79
8320;BME280;4197;42.130;24.746;2023-04-05T11:01:08;99185.44;;;8.64;63.08
8320;BME280;4197;42.130;24.746;2023-04-05T11:03:44;99184.31;;;8.65;64.34
8320;BME280;4197;42.130;24.746;2023-04-05T11:06:18;99189.47;;;8.86;64.56
8320;BME280;4197;42.130;24.746;2023-04-05T11:08:47;99191.47;;;9.05;65.02
8320;BME280;4197;42.130;24.746;2023-04-05T11:11:17;99177.50;;;9.19;62.21
8320;BME280;4197;42.130;24.746;2023-04-05T11:13:50;99183.88;;;9.26;62.64
8320;BME280;4197;42.130;24.746;2023-04-05T11:16:20;99180.28;;;9.22;62.70
8320;BME280;4197;42.130;24.746;2023-04-05T11:18:50;99185.59;;;9.34;63.00
8320;BME280;4197;42.130;24.746;2023-04-05T11:21:21;99194.69;;;9.26;63.04
8320;BME280;4197;42.130;24.746;2023-04-05T11:24:04;99176.28;;;9.16;62.00
8320;BME280;4197;42.130;24.746;2023-04-05T11:26:52;99187.81;;;8.97;63.25
8320;BME280;4197;42.130;24.746;2023-04-05T11:29:51;99179.88;;;9.04;63.99
8320;BME280;4197;42.130;24.746;2023-04-05T11:32:20;99182.56;;;9.20;64.59
8320;BME280;4197;42.130;24.746;2023-04-05T11:35:04;99189.16;;;9.38;63.92
8320;BME280;4197;42.130;24.746;2023-04-05T11:37:53;99197.66;;;9.37;63.14
8320;BME280;4197;42.130;24.746;2023-04-05T11:40:26;99189.53;;;9.37;63.16
8320;BME280;4197;42.130;24.746;2023-04-05T11:43:03;99188.56;;;9.29;63.38
8320;BME280;4197;42.130;24.746;2023-04-05T11:45:34;99193.56;;;9.27;63.53
8320;BME280;4197;42.130;24.746;2023-04-05T11:48:07;99185.28;;;9.20;64.17
8320;BME280;4197;42.130;24.746;2023-04-05T11:50:38;99176.34;;;9.20;64.19
8320;BME280;4197;42.130;24.746;2023-04-05T11:53:11;99184.81;;;9.34;64.91
8320;BME280;4197;42.130;24.746;2023-04-05T11:55:41;99185.47;;;9.47;63.83
8320;BME280;4197;42.130;24.746;2023-04-05T11:58:13;99190.91;;;9.47;63.11
8320;BME280;4197;42.130;24.746;2023-04-05T12:00:43;99181.50;;;9.41;64.49
8320;BME280;4197;42.130;24.746;2023-04-05T12:03:12;99190.31;;;9.37;64.39
8320;BME280;4197;42.130;24.746;2023-04-05T12:05:49;99181.34;;;9.18;64.32
8320;BME280;4197;42.130;24.746;2023-04-05T12:08:18;99174.22;;;9.09;65.41
8320;BME280;4197;42.130;24.746;2023-04-05T12:10:54;99189.22;;;9.07;65.95
8320;BME280;4197;42.130;24.746;2023-04-05T12:13:27;99189.09;;;9.19;65.83
8320;BME280;4197;42.130;24.746;2023-04-05T12:15:59;99179.69;;;9.13;64.68
8320;BME280;4197;42.130;24.746;2023-04-05T12:18:30;99186.31;;;9.00;65.22
8320;BME280;4197;42.130;24.746;2023-04-05T12:21:01;99181.34;;;9.02;65.41
8320;BME280;4197;42.130;24.746;2023-04-05T12:23:33;99188.41;;;9.22;63.11
8320;BME280;4197;42.130;24.746;2023-04-05T12:26:04;99195.34;;;9.39;62.41
8320;BME280;4197;42.130;24.746;2023-04-05T12:28:51;99191.72;;;9.31;62.52
8320;BME280;4197;42.130;24.746;2023-04-05T12:31:36;99187.09;;;9.32;63.26
8320;BME280;4197;42.130;24.746;2023-04-05T12:34:05;99189.81;;;9.32;64.08
8320;BME280;4197;42.130;24.746;2023-04-05T12:36:35;99186.56;;;9.26;65.19
8320;BME280;4197;42.130;24.746;2023-04-05T12:39:06;99193.03;;;9.06;66.22
8320;BME280;4197;42.130;24.746;2023-04-05T12:41:35;99182.94;;;8.87;67.21
8320;BME280;4197;42.130;24.746;2023-04-05T12:44:04;99190.75;;;8.92;66.95
8320;BME280;4197;42.130;24.746;2023-04-05T12:46:39;99175.78;;;8.79;66.25
8320;BME280;4197;42.130;24.746;2023-04-05T12:49:09;99188.06;;;8.76;65.55
8320;BME280;4197;42.130;24.746;2023-04-05T12:51:42;99187.00;;;8.65;65.83
8320;BME280;4197;42.130;24.746;2023-04-05T12:54:11;99190.84;;;8.64;66.46
8320;BME280;4197;42.130;24.746;2023-04-05T12:56:40;99193.13;;;8.62;66.62
8320;BME280;4197;42.130;24.746;2023-04-05T12:59:08;99185.59;;;8.55;67.49
8320;BME280;4197;42.130;24.746;2023-04-05T13:01:37;99189.97;;;8.60;66.48
8320;BME280;4197;42.130;24.746;2023-04-05T13:04:05;99185.78;;;8.62;67.02
8320;BME280;4197;42.130;24.746;2023-04-05T13:06:43;99205.00;;;8.73;67.14
8320;BME280;4197;42.130;24.746;2023-04-05T13:09:13;99190.22;;;8.55;69.15
8320;BME280;4197;42.130;24.746;2023-04-05T13:11:42;99187.41;;;8.23;70.50
8320;BME280;4197;42.130;24.746;2023-04-05T13:14:10;99185.38;;;8.20;72.53
8320;BME280;4197;42.130;24.746;2023-04-05T13:16:39;99174.75;;;8.39;71.66
8320;BME280;4197;42.130;24.746;2023-04-05T13:19:07;99192.03;;;8.51;72.17
8320;BME280;4197;42.130;24.746;2023-04-05T13:21:35;99191.28;;;8.66;68.73
8320;BME280;4197;42.130;24.746;2023-04-05T13:24:05;99197.81;;;8.65;67.53
8320;BME280;4197;42.130;24.746;2023-04-05T13:26:37;99193.19;;;8.65;67.60
8320;BME280;4197;42.130;24.746;2023-04-05T13:29:05;99201.47;;;8.73;67.86
8320;BME280;4197;42.130;24.746;2023-04-05T13:31:34;99196.25;;;8.64;67.73
8320;BME280;4197;42.130;24.746;2023-04-05T13:34:03;99183.59;;;8.52;66.88
8320;BME280;4197;42.130;24.746;2023-04-05T13:36:34;99197.00;;;8.64;67.01